createdAt,value
2023-02-17T00:00:57.521Z,80.41
2023-02-17T00:03:24.928Z,82.34
2023-02-17T00:05:52.329Z,82.52
2023-02-17T00:08:19.562Z,84.18
2023-02-17T00:10:58.045Z,84.81
2023-02-17T00:13:25.869Z,86.39
2023-02-17T00:15:53.319Z,86.58
2023-02-17T00:18:21.727Z,87.46
2023-02-17T00:20:49.205Z,87.76
2023-02-17T00:23:16.436Z,88.15
2023-02-17T00:25:43.893Z,89.29
2023-02-17T00:28:11.086Z,89.53
2023-02-17T00:30:39.226Z,89.50
2023-02-17T00:33:06.355Z,90.24
2023-02-17T00:35:33.606Z,91.38
2023-02-17T00:38:00.889Z,90.17
2023-02-17T00:40:28.023Z,90.97
2023-02-17T00:42:55.193Z,91.19
2023-02-17T00:45:22.316Z,91.12
2023-02-17T00:47:49.517Z,92.08
2023-02-17T00:50:16.772Z,91.17
2023-02-17T00:52:43.925Z,92.13
2023-02-17T00:55:11.096Z,91.25
2023-02-17T00:57:38.271Z,92.18
2023-02-17T01:00:06.257Z,91.11
2023-02-17T01:02:33.480Z,91.23
2023-02-17T01:05:00.679Z,89.58
2023-02-17T01:07:27.881Z,91.28
2023-02-17T01:09:55.016Z,91.96
2023-02-17T01:12:22.206Z,91.94
2023-02-17T01:14:49.589Z,93.04
2023-02-17T01:17:16.728Z,93.11
2023-02-17T01:19:43.945Z,92.27
2023-02-17T01:22:11.118Z,92.47
2023-02-17T01:24:39.354Z,93.00
2023-02-17T01:27:06.702Z,92.62
2023-02-17T01:29:33.900Z,92.37
2023-02-17T01:32:01.053Z,92.52
2023-02-17T01:34:28.242Z,93.93
2023-02-17T01:36:55.543Z,93.36
2023-02-17T01:39:22.921Z,94.18
2023-02-17T01:41:50.638Z,93.94
2023-02-17T01:44:23.504Z,94.06
2023-02-17T01:46:53.218Z,94.15
2023-02-17T01:49:27.784Z,93.73
2023-02-17T01:52:27.542Z,94.66
2023-02-17T01:54:59.276Z,94.90
2023-02-17T01:57:29.254Z,94.93
2023-02-17T01:59:56.879Z,94.39
2023-02-17T02:02:24.757Z,97.01
2023-02-17T02:04:53.570Z,96.45
2023-02-17T02:07:25.142Z,96.21
2023-02-17T02:09:56.120Z,95.94
2023-02-17T02:12:35.696Z,97.36
2023-02-17T02:15:13.161Z,99.06
2023-02-17T02:18:18.712Z,99.13
2023-02-17T02:21:36.029Z,99.52
2023-02-17T02:24:15.707Z,99.30
2023-02-17T02:26:48.912Z,100.00
2023-02-17T02:29:34.679Z,100.00
2023-02-17T02:32:04.484Z,100.00
2023-02-17T02:34:38.153Z,100.00
2023-02-17T02:37:18.389Z,100.00
2023-02-17T02:39:48.956Z,100.00
2023-02-17T02:42:22.033Z,100.00
2023-02-17T02:44:49.477Z,100.00
2023-02-17T02:47:40.821Z,100.00
2023-02-17T02:50:10.567Z,100.00
2023-02-17T02:52:48.679Z,100.00
2023-02-17T02:55:20.513Z,100.00
2023-02-17T02:58:00.812Z,100.00
2023-02-17T03:00:28.006Z,100.00
2023-02-17T03:03:02.225Z,100.00
2023-02-17T03:05:37.108Z,100.00
2023-02-17T03:08:10.864Z,100.00
2023-02-17T03:10:48.692Z,100.00
2023-02-17T03:13:17.550Z,100.00
2023-02-17T03:15:45.501Z,100.00
2023-02-17T03:18:12.815Z,100.00
2023-02-17T03:21:07.202Z,100.00
2023-02-17T03:23:34.571Z,100.00
2023-02-17T03:26:01.925Z,100.00
2023-02-17T03:28:29.359Z,100.00
2023-02-17T03:30:56.584Z,100.00
2023-02-17T03:33:24.005Z,100.00
2023-02-17T03:35:51.255Z,100.00
2023-02-17T03:38:18.494Z,100.00
2023-02-17T03:40:45.700Z,100.00
2023-02-17T03:43:12.940Z,100.00
2023-02-17T03:45:40.244Z,100.00
2023-02-17T03:48:07.496Z,100.00
2023-02-17T03:50:34.779Z,100.00
2023-02-17T03:53:01.946Z,100.00
2023-02-17T03:55:29.178Z,100.00
2023-02-17T03:57:56.449Z,100.00
2023-02-17T04:00:24.186Z,100.00
2023-02-17T04:02:51.509Z,100.00
2023-02-17T04:05:18.916Z,100.00
2023-02-17T04:07:46.205Z,100.00
2023-02-17T04:10:13.534Z,100.00
2023-02-17T04:12:40.823Z,100.00
2023-02-17T04:15:09.463Z,100.00
2023-02-17T04:17:38.023Z,100.00
2023-02-17T04:20:07.339Z,100.00
2023-02-17T04:22:34.582Z,100.00
2023-02-17T04:25:01.866Z,100.00
2023-02-17T04:27:29.150Z,100.00
2023-02-17T04:29:56.417Z,100.00
2023-02-17T04:32:23.674Z,100.00
2023-02-17T04:34:50.865Z,100.00
2023-02-17T04:37:18.140Z,100.00
2023-02-17T04:39:45.368Z,100.00
2023-02-17T04:42:12.680Z,100.00
2023-02-17T04:44:39.967Z,100.00
2023-02-17T04:47:07.336Z,100.00
2023-02-17T04:49:34.714Z,100.00
2023-02-17T04:52:02.120Z,100.00
2023-02-17T04:54:29.353Z,100.00
2023-02-17T04:56:56.722Z,100.00
2023-02-17T04:59:25.587Z,100.00
2023-02-17T05:01:53.044Z,100.00
2023-02-17T05:04:20.663Z,100.00
2023-02-17T05:06:47.952Z,100.00
2023-02-17T05:09:15.217Z,100.00
2023-02-17T05:11:42.549Z,100.00
2023-02-17T05:14:09.895Z,100.00
2023-02-17T05:16:37.129Z,100.00
2023-02-17T05:19:04.739Z,100.00
2023-02-17T05:21:32.755Z,100.00
2023-02-17T05:24:00.133Z,100.00
2023-02-17T05:26:27.491Z,100.00
2023-02-17T05:28:55.062Z,100.00
2023-02-17T05:31:22.397Z,100.00
2023-02-17T05:33:50.080Z,100.00
2023-02-17T05:36:17.410Z,100.00
2023-02-17T05:38:49.071Z,100.00
2023-02-17T05:41:16.957Z,100.00
2023-02-17T05:43:44.269Z,100.00
2023-02-17T05:46:11.924Z,100.00
2023-02-17T05:48:39.239Z,100.00
2023-02-17T05:51:06.817Z,100.00
2023-02-17T05:53:34.093Z,100.00
2023-02-17T05:56:01.823Z,100.00
2023-02-17T05:58:37.063Z,100.00
2023-02-17T06:01:09.351Z,100.00
2023-02-17T06:03:40.092Z,100.00
2023-02-17T06:06:08.137Z,100.00
2023-02-17T06:08:36.671Z,100.00
2023-02-17T06:11:04.296Z,100.00
2023-02-17T06:13:31.660Z,100.00
2023-02-17T06:15:59.263Z,100.00
2023-02-17T06:18:26.733Z,100.00
2023-02-17T06:20:57.579Z,100.00
2023-02-17T06:23:25.439Z,100.00
2023-02-17T06:25:53.294Z,100.00
2023-02-17T06:28:20.638Z,100.00
2023-02-17T06:30:47.921Z,100.00
2023-02-17T06:33:15.885Z,100.00
2023-02-17T06:35:44.632Z,100.00
2023-02-17T06:38:11.855Z,100.00
2023-02-17T06:40:39.143Z,100.00
2023-02-17T06:43:06.673Z,100.00
2023-02-17T06:45:34.088Z,100.00
2023-02-17T06:48:01.511Z,100.00
2023-02-17T06:50:28.801Z,100.00
2023-02-17T06:52:56.485Z,100.00
2023-02-17T06:55:23.968Z,100.00
2023-02-17T06:57:51.293Z,100.00
2023-02-17T07:00:19.271Z,100.00
2023-02-17T07:02:47.183Z,100.00
2023-02-17T07:05:14.731Z,100.00
2023-02-17T07:07:42.084Z,100.00
2023-02-17T07:10:09.753Z,100.00
2023-02-17T07:12:37.160Z,100.00
2023-02-17T07:15:04.841Z,100.00
2023-02-17T07:17:32.194Z,100.00
2023-02-17T07:19:59.580Z,100.00
2023-02-17T07:22:27.079Z,100.00
2023-02-17T07:24:54.444Z,100.00
2023-02-17T07:27:22.002Z,100.00
2023-02-17T07:29:49.284Z,100.00
2023-02-17T07:32:16.551Z,100.00
2023-02-17T07:34:44.277Z,100.00
2023-02-17T07:37:11.523Z,100.00
2023-02-17T07:39:39.012Z,100.00
2023-02-17T07:42:06.277Z,100.00
2023-02-17T07:44:33.661Z,100.00
2023-02-17T07:47:00.873Z,100.00
2023-02-17T07:49:28.312Z,100.00
2023-02-17T07:51:58.068Z,100.00
2023-02-17T07:54:25.306Z,100.00
2023-02-17T07:56:52.548Z,100.00
2023-02-17T07:59:20.036Z,100.00
2023-02-17T08:01:47.516Z,100.00
2023-02-17T08:04:14.813Z,100.00
2023-02-17T08:06:42.027Z,100.00
2023-02-17T08:09:30.974Z,100.00
2023-02-17T08:12:16.712Z,100.00
2023-02-17T08:14:44.029Z,100.00
2023-02-17T08:17:11.369Z,100.00
2023-02-17T08:19:47.940Z,100.00
2023-02-17T08:22:18.247Z,100.00
2023-02-17T08:24:46.009Z,100.00
2023-02-17T08:27:14.788Z,100.00
2023-02-17T08:29:42.200Z,100.00
2023-02-17T08:32:09.609Z,100.00
2023-02-17T08:34:37.329Z,100.00
2023-02-17T08:37:06.221Z,100.00
2023-02-17T08:39:35.027Z,100.00
2023-02-17T08:42:03.301Z,100.00
2023-02-17T08:44:30.843Z,100.00
2023-02-17T08:46:58.131Z,100.00
2023-02-17T08:49:28.474Z,100.00
2023-02-17T08:51:55.810Z,100.00
2023-02-17T08:54:23.078Z,100.00
2023-02-17T08:56:50.368Z,100.00
2023-02-17T08:59:17.573Z,100.00
2023-02-17T09:01:44.925Z,100.00
2023-02-17T09:04:13.654Z,100.00
2023-02-17T09:06:43.984Z,100.00
2023-02-17T09:09:13.247Z,100.00
2023-02-17T09:11:40.749Z,100.00
2023-02-17T09:14:08.697Z,100.00
2023-02-17T09:16:36.199Z,100.00
2023-02-17T09:19:03.863Z,100.00
2023-02-17T09:21:31.241Z,100.00
2023-02-17T09:23:58.603Z,100.00
2023-02-17T09:26:25.932Z,100.00
2023-02-17T09:28:53.168Z,100.00
2023-02-17T09:31:22.938Z,100.00
2023-02-17T09:33:51.243Z,100.00
2023-02-17T09:36:21.439Z,100.00
2023-02-17T09:38:49.442Z,100.00
2023-02-17T09:41:22.205Z,100.00
2023-02-17T09:43:50.712Z,100.00
2023-02-17T09:46:28.839Z,100.00
2023-02-17T09:48:59.644Z,100.00
2023-02-17T09:51:36.820Z,100.00
2023-02-17T09:54:17.470Z,100.00
2023-02-17T09:56:48.406Z,100.00
2023-02-17T09:59:20.788Z,100.00
2023-02-17T10:01:49.109Z,100.00
2023-02-17T10:04:22.829Z,100.00
2023-02-17T10:06:55.054Z,100.00
2023-02-17T10:09:23.734Z,100.00
2023-02-17T10:11:52.913Z,100.00
2023-02-17T10:14:40.789Z,100.00
2023-02-17T10:17:14.497Z,100.00
2023-02-17T10:19:49.386Z,100.00
2023-02-17T10:22:21.043Z,100.00
2023-02-17T10:24:48.517Z,100.00
2023-02-17T10:27:28.526Z,100.00
2023-02-17T10:30:21.462Z,100.00
2023-02-17T10:33:02.824Z,100.00
2023-02-17T10:35:52.498Z,100.00
2023-02-17T10:38:41.633Z,100.00
2023-02-17T10:41:11.136Z,100.00
2023-02-17T10:43:38.421Z,100.00
2023-02-17T10:46:07.715Z,100.00
2023-02-17T10:48:39.021Z,100.00
2023-02-17T10:51:06.931Z,100.00
2023-02-17T10:53:39.327Z,100.00
2023-02-17T10:56:14.403Z,100.00
2023-02-17T10:58:59.923Z,100.00
2023-02-17T11:01:28.099Z,100.00
2023-02-17T11:04:06.949Z,100.00
2023-02-17T11:06:41.857Z,100.00
2023-02-17T11:09:28.480Z,100.00
2023-02-17T11:12:13.894Z,100.00
2023-02-17T11:14:46.458Z,100.00
2023-02-17T11:17:39.879Z,100.00
2023-02-17T11:20:15.275Z,100.00
2023-02-17T11:28:30.411Z,100.00
2023-02-17T11:31:00.286Z,100.00
2023-02-17T11:33:52.446Z,100.00
2023-02-17T11:36:37.583Z,100.00
2023-02-17T11:39:18.461Z,100.00
2023-02-17T11:41:45.665Z,100.00
2023-02-17T11:44:22.989Z,100.00
2023-02-17T11:47:09.823Z,100.00
2023-02-17T11:49:55.450Z,100.00
2023-02-17T11:52:44.371Z,100.00
2023-02-17T11:55:22.350Z,100.00
2023-02-17T11:58:28.234Z,100.00
2023-02-17T12:01:09.625Z,100.00
2023-02-17T12:03:52.163Z,100.00
2023-02-17T12:06:42.878Z,100.00
2023-02-17T12:09:48.739Z,100.00
2023-02-17T12:12:19.054Z,100.00
2023-02-17T12:14:46.216Z,100.00
2023-02-17T12:17:34.113Z,100.00
2023-02-17T12:20:28.632Z,100.00
2023-02-17T12:23:15.180Z,100.00
2023-02-17T12:25:53.426Z,100.00
2023-02-17T12:28:39.330Z,100.00
2023-02-17T12:31:27.722Z,100.00
2023-02-17T12:34:05.678Z,100.00
2023-02-17T12:36:38.435Z,100.00
2023-02-17T12:39:17.536Z,100.00
2023-02-17T12:42:15.880Z,100.00
2023-02-17T12:44:49.982Z,100.00
2023-02-17T12:47:46.603Z,100.00
2023-02-17T12:50:27.594Z,100.00
2023-02-17T12:52:57.683Z,100.00
2023-02-17T12:55:35.859Z,100.00
2023-02-17T12:58:13.411Z,100.00
2023-02-17T13:00:49.719Z,100.00
2023-02-17T13:03:17.794Z,100.00
2023-02-17T13:06:00.778Z,100.00
2023-02-17T13:08:42.026Z,100.00
2023-02-17T13:11:25.832Z,100.00
2023-02-17T13:13:53.041Z,100.00
2023-02-17T13:16:20.447Z,100.00
2023-02-17T13:18:50.610Z,100.00
2023-02-17T13:21:22.656Z,100.00
2023-02-17T13:24:15.091Z,100.00
2023-02-17T13:26:44.211Z,100.00
2023-02-17T13:29:11.380Z,100.00
2023-02-17T13:31:47.333Z,100.00
2023-02-17T13:34:25.519Z,100.00
2023-02-17T13:36:52.828Z,100.00
2023-02-17T13:39:25.933Z,100.00
2023-02-17T13:41:55.905Z,100.00
2023-02-17T13:44:27.932Z,100.00
2023-02-17T13:47:11.285Z,100.00
2023-02-17T13:49:38.697Z,100.00
2023-02-17T13:52:10.464Z,100.00
2023-02-17T13:54:37.681Z,100.00
2023-02-17T13:57:04.862Z,100.00
2023-02-17T13:59:37.033Z,100.00
2023-02-17T14:02:19.414Z,100.00
2023-02-17T14:04:55.130Z,100.00
2023-02-17T14:07:22.631Z,100.00
2023-02-17T14:09:54.448Z,100.00
2023-02-17T14:12:24.256Z,100.00
2023-02-17T14:14:51.576Z,100.00
2023-02-17T14:17:32.968Z,100.00
2023-02-17T14:20:00.834Z,100.00
2023-02-17T14:22:34.135Z,100.00
2023-02-17T14:25:11.616Z,100.00
2023-02-17T14:27:47.949Z,100.00
2023-02-17T14:30:28.783Z,100.00
2023-02-17T14:33:02.291Z,100.00
2023-02-17T14:35:30.106Z,100.00
2023-02-17T14:38:27.847Z,100.00
2023-02-17T14:41:02.712Z,100.00
2023-02-17T14:43:30.498Z,100.00
2023-02-17T14:45:58.040Z,100.00
2023-02-17T14:48:27.687Z,100.00
2023-02-17T14:50:57.332Z,100.00
2023-02-17T14:53:28.417Z,100.00
2023-02-17T14:56:26.142Z,100.00
2023-02-17T14:58:53.918Z,100.00
2023-02-17T15:01:23.243Z,100.00
2023-02-17T15:03:50.677Z,100.00
2023-02-17T15:06:23.047Z,100.00
2023-02-17T15:08:53.522Z,100.00
2023-02-17T15:11:33.708Z,100.00
2023-02-17T15:14:02.913Z,100.00
2023-02-17T15:16:30.673Z,100.00
2023-02-17T15:19:01.130Z,100.00
2023-02-17T15:21:31.665Z,100.00
2023-02-17T15:24:00.195Z,100.00
2023-02-17T15:26:30.451Z,100.00
2023-02-17T15:29:02.836Z,100.00
2023-02-17T15:31:34.236Z,100.00
2023-02-17T15:34:06.095Z,100.00
2023-02-17T15:36:33.289Z,100.00
2023-02-17T15:39:00.578Z,100.00
2023-02-17T15:41:29.900Z,100.00
2023-02-17T15:43:58.748Z,100.00
2023-02-17T15:46:31.612Z,100.00
2023-02-17T15:48:59.122Z,100.00
2023-02-17T15:51:26.507Z,100.00
2023-02-17T15:53:53.763Z,100.00
2023-02-17T15:56:30.542Z,100.00
2023-02-17T15:58:59.320Z,100.00
2023-02-17T16:01:31.744Z,100.00
2023-02-17T16:03:59.482Z,100.00
2023-02-17T16:06:27.466Z,100.00
2023-02-17T16:08:55.325Z,100.00
2023-02-17T16:11:22.971Z,100.00
2023-02-17T16:13:50.609Z,100.00
2023-02-17T16:16:24.803Z,100.00
2023-02-17T16:18:52.236Z,100.00
2023-02-17T16:21:19.519Z,100.00
2023-02-17T16:23:46.770Z,100.00
2023-02-17T16:26:25.933Z,100.00
2023-02-17T16:28:53.402Z,100.00
2023-02-17T16:31:20.715Z,100.00
2023-02-17T16:33:48.206Z,100.00
2023-02-17T16:36:17.715Z,100.00
2023-02-17T16:38:50.543Z,100.00
2023-02-17T16:41:20.260Z,100.00
2023-02-17T16:43:47.790Z,100.00
2023-02-17T16:46:36.364Z,100.00
2023-02-17T16:49:11.668Z,100.00
2023-02-17T16:51:43.287Z,100.00
2023-02-17T16:54:16.295Z,100.00
2023-02-17T16:56:48.865Z,100.00
2023-02-17T16:59:21.947Z,100.00
2023-02-17T17:01:50.931Z,100.00
2023-02-17T17:04:18.319Z,100.00
2023-02-17T17:06:51.782Z,100.00
2023-02-17T17:09:24.351Z,100.00
2023-02-17T17:11:51.732Z,100.00
2023-02-17T17:14:21.528Z,100.00
2023-02-17T17:16:55.797Z,100.00
2023-02-17T17:19:23.582Z,100.00
2023-02-17T17:21:55.851Z,100.00
2023-02-17T17:24:26.099Z,100.00
2023-02-17T17:26:55.943Z,100.00
2023-02-17T17:29:23.144Z,100.00
2023-02-17T17:31:51.106Z,100.00
2023-02-17T17:34:18.387Z,100.00
2023-02-17T17:36:51.713Z,100.00
2023-02-17T17:39:21.264Z,100.00
2023-02-17T17:41:49.516Z,99.86
2023-02-17T17:44:16.819Z,99.86
2023-02-17T17:46:44.419Z,99.42
2023-02-17T17:49:14.329Z,99.56
2023-02-17T17:51:41.884Z,97.75
2023-02-17T17:54:09.721Z,97.47
2023-02-17T17:56:42.488Z,96.97
2023-02-17T17:59:11.547Z,96.79
2023-02-17T18:01:39.033Z,97.78
2023-02-17T18:04:08.020Z,99.11
2023-02-17T18:06:41.825Z,100.00
2023-02-17T18:09:25.730Z,100.00
2023-02-17T18:12:00.390Z,100.00
2023-02-17T18:14:27.636Z,100.00
2023-02-17T18:16:54.868Z,97.92
2023-02-17T18:19:22.786Z,97.20
2023-02-17T18:21:49.998Z,97.47
2023-02-17T18:24:17.358Z,96.80
2023-02-17T18:26:44.649Z,95.68
2023-02-17T18:29:11.901Z,93.50
2023-02-17T18:31:39.172Z,90.57
2023-02-17T18:34:06.530Z,87.24
2023-02-17T18:36:33.768Z,87.12
2023-02-17T18:39:01.027Z,86.70
2023-02-17T18:41:30.809Z,85.31
2023-02-17T18:43:59.439Z,84.79
2023-02-17T18:46:30.536Z,84.32
2023-02-17T18:48:57.799Z,84.07
2023-02-17T18:51:27.595Z,84.03
2023-02-17T18:53:56.597Z,84.52
2023-02-17T18:56:27.078Z,83.97
2023-02-17T18:58:57.607Z,83.97
2023-02-17T19:01:33.828Z,83.45
2023-02-17T19:04:01.520Z,83.24
2023-02-17T19:06:33.632Z,81.63
2023-02-17T19:09:04.168Z,79.03
2023-02-17T19:11:32.292Z,77.69
2023-02-17T19:14:04.996Z,75.13
2023-02-17T19:16:35.638Z,72.54
2023-02-17T19:19:03.440Z,72.26
2023-02-17T19:21:30.782Z,69.80
2023-02-17T19:23:58.011Z,69.17
2023-02-17T19:26:28.610Z,70.24
2023-02-17T19:28:55.871Z,68.74
2023-02-17T19:31:23.349Z,68.75
2023-02-17T19:33:50.711Z,69.00
2023-02-17T19:36:20.347Z,69.59
2023-02-17T19:38:48.741Z,68.35
2023-02-17T19:41:17.605Z,69.11
2023-02-17T19:43:45.663Z,67.90
2023-02-17T19:46:18.373Z,68.37
2023-02-17T19:48:46.188Z,69.18
2023-02-17T19:51:16.567Z,67.15
2023-02-17T19:53:44.258Z,67.48
2023-02-17T19:56:14.516Z,67.22
2023-02-17T19:58:43.369Z,65.89
2023-02-17T20:01:16.844Z,66.19
2023-02-17T20:03:44.887Z,66.28
2023-02-17T20:06:21.809Z,66.45
2023-02-17T20:08:59.304Z,66.69
2023-02-17T20:11:30.262Z,65.62
2023-02-17T20:14:04.871Z,65.70
2023-02-17T20:16:33.032Z,66.10
2023-02-17T20:19:01.515Z,67.44
2023-02-17T20:21:31.394Z,67.97
2023-02-17T20:23:59.148Z,68.26
2023-02-17T20:26:29.519Z,68.54
2023-02-17T20:28:58.052Z,67.94
2023-02-17T20:31:28.471Z,67.67
2023-02-17T20:33:55.946Z,68.37
2023-02-17T20:36:23.724Z,69.49
2023-02-17T20:38:50.990Z,68.52
2023-02-17T20:41:31.982Z,69.27
2023-02-17T20:44:02.908Z,69.79
2023-02-17T20:46:31.088Z,70.24
2023-02-17T20:48:58.880Z,70.54
2023-02-17T20:51:26.563Z,70.76
2023-02-17T20:54:03.649Z,70.28
2023-02-17T20:56:39.852Z,70.40
2023-02-17T20:59:10.356Z,71.37
2023-02-17T21:01:37.932Z,70.96
2023-02-17T21:04:09.109Z,70.71
2023-02-17T21:06:41.449Z,70.14
2023-02-17T21:09:17.357Z,71.05
2023-02-17T21:11:45.536Z,70.72
2023-02-17T21:14:13.288Z,70.79
2023-02-17T21:16:40.958Z,70.73
2023-02-17T21:19:09.292Z,70.39
2023-02-17T21:21:36.869Z,70.81
2023-02-17T21:27:08.002Z,70.62
2023-02-17T21:29:36.644Z,71.14
2023-02-17T21:32:06.991Z,71.57
2023-02-17T21:34:38.412Z,71.26
2023-02-17T21:37:08.326Z,71.65
2023-02-17T21:39:36.375Z,71.76
2023-02-17T21:42:04.203Z,71.84
2023-02-17T21:44:50.121Z,71.27
2023-02-17T21:47:18.095Z,72.28
2023-02-17T21:49:45.506Z,71.62
2023-02-17T21:52:13.483Z,71.93
2023-02-17T21:54:41.022Z,72.53
2023-02-17T21:57:08.650Z,72.76
2023-02-17T21:59:35.892Z,72.63
2023-02-17T22:02:03.292Z,72.77
2023-02-17T22:04:33.579Z,72.57
2023-02-17T22:07:00.966Z,72.96
2023-02-17T22:09:28.252Z,73.00
2023-02-17T22:11:55.687Z,72.84
2023-02-17T22:14:23.622Z,72.99
2023-02-17T22:16:51.600Z,72.66
2023-02-17T22:19:22.813Z,72.08
2023-02-17T22:21:51.084Z,73.03
2023-02-17T22:24:20.725Z,72.88
2023-02-17T22:26:49.094Z,72.39
2023-02-17T22:29:16.747Z,73.06
2023-02-17T22:31:47.481Z,73.17
2023-02-17T22:34:15.498Z,72.59
2023-02-17T22:36:42.712Z,73.57
2023-02-17T22:39:13.739Z,73.54
2023-02-17T22:41:40.926Z,73.56
2023-02-17T22:44:10.750Z,73.61
2023-02-17T22:46:38.113Z,73.37
2023-02-17T22:49:08.308Z,73.26
2023-02-17T22:51:43.399Z,72.82
2023-02-17T22:54:13.633Z,73.23
2023-02-17T22:56:40.882Z,73.43
2023-02-17T22:59:08.059Z,72.97
2023-02-17T23:01:38.111Z,72.59
2023-02-17T23:04:06.874Z,73.09
2023-02-17T23:06:36.384Z,73.31
2023-02-17T23:09:04.854Z,73.89
2023-02-17T23:11:50.259Z,73.76
2023-02-17T23:14:28.115Z,73.64
2023-02-17T23:16:59.992Z,74.09
2023-02-17T23:19:28.231Z,74.63
2023-02-17T23:21:58.011Z,74.79
2023-02-17T23:24:26.672Z,74.16
2023-02-17T23:26:55.684Z,74.96
2023-02-17T23:29:23.478Z,74.68
2023-02-17T23:31:50.836Z,75.39
2023-02-17T23:34:18.275Z,75.89
2023-02-17T23:36:46.387Z,75.66
2023-02-17T23:39:14.698Z,76.22
2023-02-17T23:41:41.940Z,76.12
2023-02-17T23:44:10.883Z,76.41
2023-02-17T23:46:38.355Z,76.59
2023-02-17T23:49:06.102Z,76.49
2023-02-17T23:51:33.804Z,76.83
2023-02-17T23:54:01.397Z,77.73
2023-02-17T23:56:32.101Z,77.50
2023-02-17T23:58:59.875Z,77.63
